Time;durP1;ratioP1;P1;durP2;ratioP2;P2;SDS_P1;SDS_P2;PMS_P1;PMS_P2;Temp;Humidity;BMP_temperature;BMP_pressure;BME280_temperature;BME280_humidity;BME280_pressure;Samples;Min_cycle;Max_cycle;Signal;HPM_P1;HPM_P2
2023/06/07 00:01:49;;;;;;;7.60;6.40;;;16.00;99.90;;;;;;5118376;28;20027;-82
2023/06/07 00:04:15;;;;;;;8.52;7.38;;;16.00;99.90;;;;;;5116316;28;20077;-82
2023/06/07 00:06:40;;;;;;;10.75;7.57;;;16.00;99.90;;;;;;5099099;27;20029;-82
2023/06/07 00:09:09;;;;;;;8.57;7.40;;;16.00;99.90;;;;;;5132239;27;20027;-83
2023/06/07 00:11:36;;;;;;;10.88;8.00;;;16.00;99.90;;;;;;5102111;28;20114;-82
2023/06/07 00:14:02;;;;;;;8.98;7.78;;;16.00;99.90;;;;;;5122792;27;20403;-82
2023/06/07 00:16:27;;;;;;;13.05;8.27;;;16.00;99.90;;;;;;5122605;27;20077;-82
2023/06/07 00:18:53;;;;;;;13.02;8.48;;;16.00;99.90;;;;;;5122670;27;20035;-82
2023/06/07 00:21:20;;;;;;;11.00;8.13;;;16.00;99.90;;;;;;5127876;27;20027;-83
2023/06/07 00:23:46;;;;;;;10.77;8.65;;;16.00;99.90;;;;;;5110502;27;20062;-83
2023/06/07 00:26:12;;;;;;;12.30;8.95;;;16.00;99.90;;;;;;5121417;27;20035;-82
2023/06/07 00:28:37;;;;;;;10.07;7.72;;;15.90;99.90;;;;;;5118982;27;20050;-83
2023/06/07 00:31:03;;;;;;;10.70;8.07;;;15.90;99.90;;;;;;5131556;27;20069;-83
2023/06/07 00:33:29;;;;;;;10.27;8.30;;;15.90;99.90;;;;;;5131477;27;20035;-83
2023/06/07 00:35:54;;;;;;;13.80;8.32;;;16.00;99.90;;;;;;5121079;27;20042;-83
2023/06/07 00:38:20;;;;;;;10.45;8.60;;;15.90;99.90;;;;;;5121436;27;20028;-83
2023/06/07 00:40:45;;;;;;;9.43;8.27;;;15.90;99.90;;;;;;5121229;27;20028;-83
2023/06/07 00:43:11;;;;;;;10.13;9.02;;;15.90;99.90;;;;;;5121362;27;20211;-83
2023/06/07 00:45:36;;;;;;;11.32;8.27;;;15.90;99.90;;;;;;5121292;27;20072;-83
2023/06/07 00:48:03;;;;;;;10.40;7.32;;;15.90;99.90;;;;;;5120398;27;20135;-82
2023/06/07 00:50:29;;;;;;;12.43;8.90;;;15.90;99.90;;;;;;5121407;27;20023;-83
2023/06/07 00:52:55;;;;;;;13.30;9.55;;;15.90;99.90;;;;;;5122471;27;20542;-82
2023/06/07 00:55:21;;;;;;;11.75;9.02;;;15.90;99.90;;;;;;5121779;27;20026;-83
2023/06/07 00:57:47;;;;;;;12.70;9.32;;;15.90;99.90;;;;;;5118026;27;20028;-83
2023/06/07 01:00:15;;;;;;;13.38;9.48;;;16.00;99.90;;;;;;5120796;27;20028;-83
2023/06/07 01:02:41;;;;;;;18.42;9.98;;;16.00;99.90;;;;;;5120137;27;20027;-83
2023/06/07 01:05:07;;;;;;;15.32;9.38;;;16.00;99.90;;;;;;5121679;27;20027;-83
2023/06/07 01:07:33;;;;;;;13.18;9.43;;;15.90;99.90;;;;;;5121885;27;20062;-83
2023/06/07 01:10:00;;;;;;;17.13;10.80;;;16.00;99.90;;;;;;5122623;27;20027;-83
2023/06/07 01:12:28;;;;;;;19.20;9.68;;;16.00;99.90;;;;;;5120852;27;20067;-82
2023/06/07 01:14:55;;;;;;;16.08;10.25;;;16.00;99.90;;;;;;5120877;27;20119;-83
2023/06/07 01:17:24;;;;;;;10.27;8.88;;;15.90;99.90;;;;;;5120836;27;20019;-83
2023/06/07 01:19:53;;;;;;;14.52;10.27;;;16.00;99.90;;;;;;5119489;27;20058;-83
2023/06/07 01:22:24;;;;;;;13.20;9.20;;;15.90;99.90;;;;;;5120676;27;20024;-83
2023/06/07 01:24:50;;;;;;;13.07;8.88;;;15.90;99.90;;;;;;5111007;27;20051;-83
2023/06/07 01:27:17;;;;;;;11.27;8.73;;;15.90;99.90;;;;;;5119848;27;20047;-83
2023/06/07 01:29:44;;;;;;;13.50;8.63;;;15.80;99.90;;;;;;5120176;27;20035;-84
2023/06/07 01:32:12;;;;;;;14.73;10.15;;;15.80;99.90;;;;;;5115975;27;20036;-83
2023/06/07 01:34:39;;;;;;;12.40;9.68;;;15.80;99.90;;;;;;5110980;27;20039;-83
2023/06/07 01:37:05;;;;;;;11.27;9.38;;;15.80;99.90;;;;;;5112677;27;20031;-83
2023/06/07 01:39:32;;;;;;;11.70;8.90;;;15.70;99.90;;;;;;5113792;27;20039;-83
2023/06/07 01:41:59;;;;;;;11.98;9.35;;;15.70;99.90;;;;;;5109658;27;20027;-83
2023/06/07 01:44:25;;;;;;;10.30;9.18;;;15.70;99.90;;;;;;5116095;27;20557;-83
2023/06/07 01:46:51;;;;;;;16.13;10.40;;;15.70;99.90;;;;;;5121309;27;20031;-84
2023/06/07 01:49:19;;;;;;;16.77;9.48;;;15.70;99.90;;;;;;5117015;27;20038;-83
2023/06/07 01:51:45;;;;;;;10.93;8.43;;;15.60;99.90;;;;;;5107360;28;20028;-83
2023/06/07 01:54:11;;;;;;;12.20;8.68;;;15.60;99.90;;;;;;5088911;28;20413;-83
2023/06/07 01:56:54;;;;;;;12.38;9.23;;;15.60;99.90;;;;;;5115329;27;20594;-83
2023/06/07 01:59:27;;;;;;;10.93;8.10;;;15.60;99.90;;;;;;5103214;27;20027;-81
2023/06/07 02:02:27;;;;;;;11.30;8.55;;;15.60;99.90;;;;;;5119816;27;20434;-82
2023/06/07 02:04:58;;;;;;;12.60;8.00;;;15.60;99.90;;;;;;5115097;27;20076;-82
2023/06/07 02:07:28;;;;;;;12.70;8.38;;;15.60;99.90;;;;;;5107534;27;20032;-82
2023/06/07 02:09:54;;;;;;;12.70;9.35;;;15.60;99.90;;;;;;5110746;27;20113;-83
2023/06/07 02:12:20;;;;;;;11.65;9.00;;;15.60;99.90;;;;;;5101510;27;20024;-83
2023/06/07 02:14:52;;;;;;;9.65;7.72;;;15.60;99.90;;;;;;5111526;27;20498;-83
2023/06/07 02:17:18;;;;;;;8.82;7.65;;;15.60;99.90;;;;;;5113081;27;20019;-83
2023/06/07 02:19:44;;;;;;;11.98;9.27;;;15.60;99.90;;;;;;5101187;27;20401;-83
2023/06/07 02:22:09;;;;;;;13.73;9.13;;;15.60;99.90;;;;;;5115731;27;20028;-83
2023/06/07 02:24:37;;;;;;;15.25;9.40;;;15.60;99.90;;;;;;5108150;27;20027;-83
2023/06/07 02:27:04;;;;;;;11.50;8.90;;;15.60;99.90;;;;;;5104836;27;20052;-83
2023/06/07 02:29:29;;;;;;;15.15;10.18;;;15.60;99.90;;;;;;5114918;27;20026;-83
2023/06/07 02:31:57;;;;;;;14.93;10.70;;;15.50;99.90;;;;;;5116462;27;20126;-82
2023/06/07 02:34:23;;;;;;;14.50;10.50;;;15.50;99.90;;;;;;5116078;27;20039;-83
2023/06/07 02:36:50;;;;;;;18.38;11.05;;;15.50;99.90;;;;;;5110120;27;20130;-83
2023/06/07 02:39:16;;;;;;;14.27;10.60;;;15.60;99.90;;;;;;5107751;27;20111;-83
2023/06/07 02:41:41;;;;;;;15.45;10.05;;;15.50;99.90;;;;;;5113868;27;20015;-83
2023/06/07 02:44:08;;;;;;;11.98;9.45;;;15.50;99.90;;;;;;5117981;27;20019;-83
2023/06/07 02:46:33;;;;;;;10.15;8.50;;;15.50;99.90;;;;;;5117375;27;20026;-83
2023/06/07 02:48:59;;;;;;;12.05;8.88;;;15.50;99.90;;;;;;5097581;27;20031;-83
2023/06/07 02:51:25;;;;;;;13.90;10.43;;;15.60;99.90;;;;;;5108350;27;20023;-83
2023/06/07 02:53:50;;;;;;;14.23;10.45;;;15.50;99.90;;;;;;5112650;27;20047;-83
2023/06/07 02:56:16;;;;;;;12.70;9.63;;;15.50;99.90;;;;;;5109167;27;20080;-83
2023/06/07 02:58:42;;;;;;;11.38;8.85;;;15.50;99.90;;;;;;5112827;27;20496;-83
2023/06/07 03:01:08;;;;;;;9.73;8.23;;;15.50;99.90;;;;;;5119679;27;20028;-83
2023/06/07 03:03:37;;;;;;;10.38;7.80;;;15.50;99.90;;;;;;5107982;27;20034;-83
2023/06/07 03:06:07;;;;;;;14.02;10.13;;;15.60;99.90;;;;;;5112081;27;20070;-82
2023/06/07 03:08:33;;;;;;;11.38;9.27;;;15.60;99.90;;;;;;5118229;27;20035;-83
2023/06/07 03:10:59;;;;;;;14.68;8.63;;;15.60;99.90;;;;;;5099259;27;20195;-83
2023/06/07 03:13:25;;;;;;;13.07;9.55;;;15.60;99.90;;;;;;5117309;27;20441;-83
2023/06/07 03:15:50;;;;;;;14.00;9.95;;;15.50;99.90;;;;;;5114769;27;20019;-84
2023/06/07 03:18:18;;;;;;;13.70;9.43;;;15.50;99.90;;;;;;5107440;27;20376;-83
2023/06/07 03:20:44;;;;;;;16.73;10.20;;;15.50;99.90;;;;;;5100472;28;20292;-83
2023/06/07 03:23:09;;;;;;;16.92;11.07;;;15.50;99.90;;;;;;5106552;27;20024;-83
2023/06/07 03:25:35;;;;;;;13.93;10.98;;;15.50;99.90;;;;;;5121362;27;20090;-83
2023/06/07 03:28:02;;;;;;;14.20;10.25;;;15.40;99.90;;;;;;5120392;27;20031;-83
2023/06/07 03:30:30;;;;;;;13.98;10.52;;;15.40;99.90;;;;;;5113184;27;20027;-82
2023/06/07 03:32:56;;;;;;;12.90;9.50;;;15.40;99.90;;;;;;5113313;27;20043;-83
2023/06/07 03:35:21;;;;;;;10.65;8.43;;;15.40;99.90;;;;;;5118069;27;20023;-83
2023/06/07 03:37:47;;;;;;;11.02;7.90;;;15.30;99.90;;;;;;5105715;27;20058;-83
2023/06/07 03:40:13;;;;;;;11.05;8.55;;;15.40;99.90;;;;;;5107230;28;20076;-83
2023/06/07 03:42:39;;;;;;;14.30;10.20;;;15.40;99.90;;;;;;5109002;27;20035;-82
2023/06/07 03:45:05;;;;;;;14.52;9.82;;;15.40;99.90;;;;;;5105916;27;20568;-84
2023/06/07 03:47:32;;;;;;;12.10;10.02;;;15.30;99.90;;;;;;5105075;27;20553;-83
2023/06/07 03:49:58;;;;;;;11.98;8.98;;;15.30;99.90;;;;;;5110193;28;20480;-83
2023/06/07 03:52:23;;;;;;;11.98;8.60;;;15.30;99.90;;;;;;5104845;28;22826;-83
2023/06/07 03:54:49;;;;;;;9.18;8.15;;;15.30;99.90;;;;;;5102398;28;20139;-83
2023/06/07 03:57:14;;;;;;;10.60;8.75;;;15.30;99.90;;;;;;5109436;28;20023;-83
2023/06/07 03:59:40;;;;;;;11.82;8.23;;;15.30;99.90;;;;;;5112606;28;20142;-83
2023/06/07 04:02:06;;;;;;;10.77;8.73;;;15.30;99.90;;;;;;5112021;28;20473;-82
2023/06/07 04:04:32;;;;;;;11.15;8.50;;;15.30;99.90;;;;;;5107616;28;20028;-83
2023/06/07 04:07:00;;;;;;;11.70;8.90;;;15.20;99.90;;;;;;5108754;28;20062;-83
2023/06/07 04:09:26;;;;;;;10.27;8.40;;;15.20;99.90;;;;;;5101903;28;20051;-83
2023/06/07 04:11:53;;;;;;;15.18;11.05;;;15.20;99.90;;;;;;5099100;28;20488;-83
2023/06/07 04:14:19;;;;;;;11.30;10.05;;;15.10;99.90;;;;;;5112327;28;20039;-83
2023/06/07 04:16:44;;;;;;;16.98;11.32;;;15.10;99.90;;;;;;5110522;28;20026;-83
2023/06/07 04:19:10;;;;;;;14.38;10.25;;;15.10;99.90;;;;;;5115468;28;20019;-83
2023/06/07 04:21:36;;;;;;;13.50;10.77;;;15.00;99.90;;;;;;5112070;28;20023;-83
2023/06/07 04:24:02;;;;;;;14.75;10.18;;;15.00;99.90;;;;;;5108947;28;20035;-83
2023/06/07 04:26:31;;;;;;;14.27;10.60;;;15.00;99.90;;;;;;5097278;28;20051;-83
2023/06/07 04:28:57;;;;;;;9.77;8.65;;;15.00;99.90;;;;;;5109170;28;20330;-83
2023/06/07 04:31:29;;;;;;;14.52;11.45;;;15.00;99.90;;;;;;5112775;28;20028;-83
2023/06/07 04:33:57;;;;;;;14.38;11.32;;;15.00;99.90;;;;;;5099622;28;20043;-83
2023/06/07 04:36:25;;;;;;;13.23;10.15;;;15.00;99.90;;;;;;5112456;28;20031;-82
2023/06/07 04:38:52;;;;;;;11.15;9.40;;;15.00;99.90;;;;;;5086811;28;20062;-83
2023/06/07 04:41:18;;;;;;;18.85;10.35;;;15.00;99.90;;;;;;5102855;28;20425;-83
2023/06/07 04:43:48;;;;;;;18.95;12.27;;;15.10;99.90;;;;;;5099784;28;20116;-83
2023/06/07 04:46:15;;;;;;;18.70;12.40;;;15.10;99.90;;;;;;5103497;28;20087;-83
2023/06/07 04:48:43;;;;;;;15.60;11.02;;;15.20;99.90;;;;;;5097694;28;20407;-83
2023/06/07 04:51:09;;;;;;;14.30;10.23;;;15.20;99.90;;;;;;5091864;28;20023;-83
2023/06/07 04:53:36;;;;;;;15.15;10.52;;;15.20;99.90;;;;;;5097072;28;20039;-84
2023/06/07 04:56:03;;;;;;;13.02;11.05;;;15.30;99.90;;;;;;5102199;27;20067;-84
2023/06/07 04:58:30;;;;;;;16.80;11.50;;;15.30;99.90;;;;;;5108167;27;20019;-83
2023/06/07 05:00:56;;;;;;;13.18;11.05;;;15.30;99.90;;;;;;5120075;27;20039;-83
2023/06/07 05:03:22;;;;;;;13.40;11.10;;;15.40;99.90;;;;;;5127577;27;20023;-84
2023/06/07 05:05:48;;;;;;;16.20;11.35;;;15.40;99.90;;;;;;5122279;27;20016;-83
2023/06/07 05:08:15;;;;;;;15.07;11.50;;;15.40;99.90;;;;;;5118131;27;20036;-84
2023/06/07 05:10:40;;;;;;;13.73;10.68;;;15.40;99.90;;;;;;5121694;27;20062;-84
2023/06/07 05:13:06;;;;;;;16.20;10.63;;;15.50;99.90;;;;;;5110795;27;20481;-83
2023/06/07 05:15:32;;;;;;;15.43;11.07;;;15.50;99.90;;;;;;5119011;27;20114;-84
2023/06/07 05:18:02;;;;;;;15.27;10.85;;;15.50;99.90;;;;;;5117951;27;20042;-83
2023/06/07 05:20:28;;;;;;;16.60;12.05;;;15.50;99.90;;;;;;5114732;27;20069;-84
2023/06/07 05:22:54;;;;;;;15.48;10.93;;;15.60;99.90;;;;;;5113507;27;20036;-83
2023/06/07 05:25:20;;;;;;;12.45;9.02;;;15.60;99.90;;;;;;5118685;27;20175;-83
2023/06/07 05:27:48;;;;;;;12.68;9.23;;;15.70;99.90;;;;;;5116713;27;20054;-84
2023/06/07 05:30:15;;;;;;;13.15;10.55;;;15.70;99.90;;;;;;5114323;27;20095;-83
2023/06/07 05:32:41;;;;;;;9.00;7.60;;;15.70;99.90;;;;;;5118446;27;20039;-84
2023/06/07 05:35:06;;;;;;;11.85;9.30;;;15.80;99.90;;;;;;5116268;27;20042;-84
2023/06/07 05:37:32;;;;;;;14.10;11.05;;;15.80;99.90;;;;;;5111816;27;20080;-84
2023/06/07 05:39:58;;;;;;;14.15;10.85;;;15.90;99.90;;;;;;5116066;27;20102;-84
2023/06/07 05:42:24;;;;;;;12.25;10.07;;;15.90;99.90;;;;;;5115432;27;20042;-82
2023/06/07 05:44:50;;;;;;;15.02;10.85;;;15.90;99.90;;;;;;5109393;27;20448;-84
2023/06/07 05:47:17;;;;;;;15.30;12.10;;;16.00;99.90;;;;;;5109123;27;20114;-84
2023/06/07 05:49:48;;;;;;;19.35;12.57;;;16.00;99.90;;;;;;5108693;27;20027;-84
2023/06/07 05:52:16;;;;;;;17.42;12.45;;;16.10;99.90;;;;;;5115418;27;20027;-84
2023/06/07 05:54:49;;;;;;;16.50;11.75;;;16.10;99.90;;;;;;5108346;27;20126;-84
2023/06/07 05:57:15;;;;;;;16.23;11.80;;;16.20;99.90;;;;;;5111696;27;20027;-84
2023/06/07 05:59:41;;;;;;;16.23;10.20;;;16.20;99.90;;;;;;5117607;27;20023;-84
2023/06/07 06:02:07;;;;;;;16.55;12.25;;;16.20;99.90;;;;;;5119861;27;20027;-85
2023/06/07 06:04:32;;;;;;;15.77;11.02;;;16.30;99.90;;;;;;5098859;27;20055;-85
2023/06/07 06:06:58;;;;;;;14.25;11.38;;;16.30;99.90;;;;;;5125244;27;20092;-84
2023/06/07 06:09:24;;;;;;;13.23;10.00;;;16.40;99.90;;;;;;5112516;27;20502;-85
2023/06/07 06:11:50;;;;;;;18.38;12.75;;;16.30;99.90;;;;;;5112229;27;20024;-85
2023/06/07 06:14:15;;;;;;;16.75;12.35;;;16.40;99.90;;;;;;5111529;27;20416;-83
2023/06/07 06:16:41;;;;;;;16.08;11.30;;;16.40;99.90;;;;;;5113012;27;20030;-84
2023/06/07 06:19:07;;;;;;;16.70;12.80;;;16.40;99.90;;;;;;5114444;27;20019;-84
2023/06/07 06:21:32;;;;;;;19.30;10.93;;;16.40;99.90;;;;;;5103607;27;20032;-84
2023/06/07 06:24:00;;;;;;;19.10;12.27;;;16.50;99.90;;;;;;5112920;27;20096;-82
2023/06/07 06:26:27;;;;;;;21.02;12.52;;;16.50;99.90;;;;;;5116947;27;20051;-83
2023/06/07 06:28:52;;;;;;;19.38;12.65;;;16.60;99.90;;;;;;5120251;27;20030;-84
2023/06/07 06:31:18;;;;;;;16.65;12.20;;;16.60;99.90;;;;;;5116037;27;22198;-84
2023/06/07 06:33:44;;;;;;;19.10;11.70;;;16.60;99.90;;;;;;5123598;27;20035;-84
2023/06/07 06:36:10;;;;;;;17.05;12.73;;;16.60;99.90;;;;;;5113789;27;20416;-83
2023/06/07 06:38:36;;;;;;;19.38;12.52;;;16.70;99.90;;;;;;5115190;27;20020;-85
2023/06/07 06:41:01;;;;;;;21.73;12.40;;;16.70;99.90;;;;;;5116674;27;20024;-84
2023/06/07 06:43:27;;;;;;;16.73;11.63;;;16.80;99.90;;;;;;5098593;27;20040;-85
2023/06/07 06:45:52;;;;;;;16.73;12.90;;;16.80;99.90;;;;;;5117069;27;20149;-84
2023/06/07 06:48:18;;;;;;;18.65;10.98;;;16.80;99.90;;;;;;5115235;27;20031;-84
2023/06/07 06:50:46;;;;;;;17.00;10.98;;;16.80;99.90;;;;;;5112013;27;20034;-82
2023/06/07 06:53:12;;;;;;;16.15;11.95;;;16.80;99.90;;;;;;5110181;27;20046;-84
2023/06/07 06:55:38;;;;;;;17.63;12.30;;;16.80;99.90;;;;;;5119271;27;20031;-83
2023/06/07 06:58:03;;;;;;;15.48;11.35;;;16.90;99.90;;;;;;5120243;27;20122;-84
2023/06/07 07:00:31;;;;;;;17.05;12.43;;;16.90;99.90;;;;;;5122695;27;20097;-84
2023/06/07 07:02:57;;;;;;;19.10;13.02;;;17.00;99.90;;;;;;5088778;28;20492;-84
2023/06/07 07:05:23;;;;;;;15.85;11.80;;;17.10;99.90;;;;;;5123495;27;20016;-83
2023/06/07 07:07:48;;;;;;;16.92;11.70;;;17.10;99.90;;;;;;5125610;27;20570;-85
2023/06/07 07:10:14;;;;;;;25.67;12.95;;;17.10;99.90;;;;;;5127266;27;20031;-84
2023/06/07 07:12:41;;;;;;;25.13;12.95;;;17.20;99.90;;;;;;5127563;27;20126;-84
2023/06/07 07:15:07;;;;;;;19.98;12.77;;;17.20;99.90;;;;;;5125881;27;20026;-84
2023/06/07 07:17:33;;;;;;;19.70;11.18;;;17.30;99.90;;;;;;5122018;27;20020;-84
2023/06/07 07:19:58;;;;;;;17.85;12.00;;;17.30;99.90;;;;;;5100618;27;20035;-84
2023/06/07 07:22:24;;;;;;;18.77;12.38;;;17.30;99.90;;;;;;5126044;27;20089;-84
2023/06/07 07:24:50;;;;;;;19.08;12.00;;;17.30;99.90;;;;;;5126428;27;20050;-84
2023/06/07 07:27:17;;;;;;;21.42;13.73;;;17.40;99.90;;;;;;5122483;27;20519;-84
2023/06/07 07:29:43;;;;;;;22.25;13.82;;;17.50;99.90;;;;;;5122295;27;20427;-84
2023/06/07 07:32:08;;;;;;;19.27;11.23;;;17.50;99.90;;;;;;5124465;27;20042;-84
2023/06/07 07:34:34;;;;;;;19.83;11.80;;;17.60;99.90;;;;;;5105488;28;20050;-84
2023/06/07 07:37:02;;;;;;;14.32;10.40;;;17.50;99.90;;;;;;5103015;27;20076;-84
2023/06/07 07:39:29;;;;;;;19.70;12.57;;;17.60;99.90;;;;;;5100448;28;20483;-83
2023/06/07 07:41:55;;;;;;;23.77;13.05;;;17.60;99.90;;;;;;5100057;28;20035;-83
2023/06/07 07:44:20;;;;;;;15.30;10.82;;;17.70;99.90;;;;;;5114946;27;20630;-84
2023/06/07 07:46:46;;;;;;;23.50;12.00;;;17.70;99.90;;;;;;5110107;27;20481;-84
2023/06/07 07:49:11;;;;;;;19.35;12.50;;;17.70;99.90;;;;;;5113131;27;20031;-84
2023/06/07 07:51:37;;;;;;;19.40;12.68;;;17.80;99.90;;;;;;5099786;28;20028;-84
2023/06/07 07:54:03;;;;;;;17.35;11.65;;;17.80;99.90;;;;;;5116317;28;20126;-85
2023/06/07 07:56:29;;;;;;;16.73;10.52;;;17.80;99.90;;;;;;5105491;28;20019;-84
2023/06/07 07:58:55;;;;;;;15.43;9.40;;;17.90;99.90;;;;;;5119067;28;20039;-84
2023/06/07 08:01:21;;;;;;;15.50;11.18;;;17.90;99.90;;;;;;5108746;28;20023;-83
2023/06/07 08:03:47;;;;;;;15.45;10.18;;;17.90;99.90;;;;;;5105310;28;20035;-84
2023/06/07 08:06:13;;;;;;;14.77;9.00;;;17.90;99.90;;;;;;5111984;28;20034;-84
2023/06/07 08:08:38;;;;;;;15.50;8.88;;;17.90;99.90;;;;;;5107329;28;20035;-84
2023/06/07 08:11:04;;;;;;;13.13;9.10;;;17.80;99.90;;;;;;5109511;28;20042;-85
2023/06/07 08:13:29;;;;;;;15.20;8.93;;;17.90;99.90;;;;;;5112827;28;20043;-84
2023/06/07 08:15:55;;;;;;;12.68;8.00;;;18.00;99.90;;;;;;5118461;28;20027;-83
2023/06/07 08:18:21;;;;;;;17.98;8.32;;;18.00;99.90;;;;;;5118753;28;20084;-84
2023/06/07 08:20:46;;;;;;;8.52;6.88;;;18.00;99.90;;;;;;5126048;28;20034;-84
2023/06/07 08:23:12;;;;;;;8.73;6.60;;;18.00;99.90;;;;;;5106069;28;20071;-84
2023/06/07 08:25:37;;;;;;;9.98;6.45;;;18.10;99.90;;;;;;5106119;28;20043;-83
2023/06/07 08:28:04;;;;;;;11.90;6.57;;;18.10;99.90;;;;;;5112683;27;20188;-84
2023/06/07 08:30:30;;;;;;;16.30;8.00;;;18.10;99.90;;;;;;5112054;27;20028;-84
2023/06/07 08:32:56;;;;;;;17.05;7.00;;;18.10;99.90;;;;;;5111951;27;20051;-83
2023/06/07 08:35:22;;;;;;;13.75;5.93;;;18.20;99.90;;;;;;5110566;27;20028;-83
2023/06/07 08:37:47;;;;;;;12.77;6.63;;;18.30;99.90;;;;;;5116744;27;20043;-83
2023/06/07 08:40:17;;;;;;;10.27;7.03;;;18.30;99.90;;;;;;5115185;27;20027;-83
2023/06/07 08:42:43;;;;;;;9.75;6.03;;;18.30;99.90;;;;;;5113015;27;20156;-83
2023/06/07 08:45:08;;;;;;;10.48;6.63;;;18.30;99.90;;;;;;5115398;27;20110;-83
2023/06/07 08:47:35;;;;;;;13.07;6.75;;;18.40;99.90;;;;;;5096894;28;20164;-83
2023/06/07 08:50:02;;;;;;;11.35;6.00;;;18.50;99.90;;;;;;5105106;28;20114;-83
2023/06/07 08:52:31;;;;;;;8.70;6.25;;;18.50;99.90;;;;;;5111176;27;20130;-83
2023/06/07 08:55:01;;;;;;;11.00;6.32;;;18.50;99.90;;;;;;5119784;27;20416;-83
2023/06/07 08:57:28;;;;;;;10.07;5.70;;;18.50;99.90;;;;;;5118826;27;20043;-83
2023/06/07 08:59:54;;;;;;;11.10;6.80;;;18.50;99.90;;;;;;5115487;27;20053;-83
2023/06/07 09:02:42;;;;;;;11.05;6.20;;;18.60;99.90;;;;;;5116578;27;20027;-83
2023/06/07 09:05:09;;;;;;;11.35;6.28;;;18.60;99.90;;;;;;5110869;27;20020;-83
2023/06/07 09:07:35;;;;;;;9.45;5.80;;;18.60;99.90;;;;;;5111534;27;20043;-83
2023/06/07 09:10:04;;;;;;;13.32;5.68;;;18.60;99.90;;;;;;5104827;27;20020;-83
2023/06/07 09:12:29;;;;;;;13.60;5.38;;;18.70;99.90;;;;;;5104861;27;20024;-83
2023/06/07 09:14:56;;;;;;;12.20;5.88;;;18.70;99.90;;;;;;5115019;27;20035;-83
2023/06/07 09:17:22;;;;;;;12.23;6.07;;;18.70;99.90;;;;;;5119579;27;20118;-83
2023/06/07 09:19:49;;;;;;;10.20;5.30;;;18.80;99.90;;;;;;5116585;27;20028;-83
2023/06/07 09:22:17;;;;;;;11.40;5.63;;;18.80;99.90;;;;;;5117534;27;20042;-83
2023/06/07 09:24:43;;;;;;;10.55;5.57;;;18.80;99.90;;;;;;5113316;27;20252;-83
2023/06/07 09:27:10;;;;;;;13.90;5.30;;;18.80;99.90;;;;;;5118135;27;20048;-82
2023/06/07 09:29:41;;;;;;;8.90;4.85;;;18.80;99.90;;;;;;5111651;27;20397;-84
2023/06/07 09:32:20;;;;;;;9.93;5.03;;;18.70;99.90;;;;;;5110172;27;20023;-82
2023/06/07 09:34:46;;;;;;;13.27;6.05;;;18.70;99.90;;;;;;5119109;27;20074;-83
2023/06/07 09:37:12;;;;;;;7.47;5.30;;;18.70;99.90;;;;;;5119543;27;20051;-83
2023/06/07 09:39:40;;;;;;;8.55;5.07;;;18.70;99.90;;;;;;5111006;27;20386;-83
2023/06/07 09:42:15;;;;;;;7.13;4.32;;;18.70;99.90;;;;;;5118841;27;20065;-83
2023/06/07 09:44:41;;;;;;;9.75;4.90;;;18.60;99.90;;;;;;5111314;27;20089;-83
2023/06/07 09:47:20;;;;;;;6.80;4.75;;;18.60;99.90;;;;;;5099937;27;20052;-83
2023/06/07 09:49:46;;;;;;;7.07;4.38;;;18.60;99.90;;;;;;5125156;27;20122;-83
2023/06/07 09:52:15;;;;;;;9.65;5.70;;;18.60;99.90;;;;;;5122493;27;20110;-82
2023/06/07 09:54:43;;;;;;;17.58;6.68;;;18.60;99.90;;;;;;5119790;27;20471;-83
2023/06/07 09:57:11;;;;;;;15.70;5.25;;;18.60;99.90;;;;;;5114928;27;20023;-83
2023/06/07 09:59:37;;;;;;;11.50;6.63;;;18.60;99.90;;;;;;5116527;27;20469;-84
2023/06/07 10:02:24;;;;;;;11.80;5.95;;;18.70;99.90;;;;;;5125877;27;20039;-83
2023/06/07 10:04:50;;;;;;;8.63;4.88;;;18.80;99.90;;;;;;5117401;27;20023;-83
2023/06/07 10:07:18;;;;;;;9.20;5.03;;;18.80;99.90;;;;;;5096863;28;20067;-83
2023/06/07 10:09:49;;;;;;;18.48;6.60;;;18.80;99.90;;;;;;5110159;27;20146;-82
2023/06/07 10:12:20;;;;;;;11.73;5.75;;;18.70;99.90;;;;;;5112601;27;20396;-83
2023/06/07 10:14:46;;;;;;;13.02;5.63;;;18.80;99.90;;;;;;5117077;27;20047;-83
2023/06/07 10:17:15;;;;;;;11.40;6.25;;;18.90;99.90;;;;;;5112435;27;20027;-83
2023/06/07 10:19:44;;;;;;;13.00;6.40;;;18.90;99.90;;;;;;5114754;27;20031;-83
2023/06/07 10:22:16;;;;;;;19.02;7.00;;;18.90;99.90;;;;;;5123598;27;20030;-83
2023/06/07 10:25:12;;;;;;;9.65;5.68;;;18.90;99.90;;;;;;5122257;27;20035;-83
2023/06/07 10:27:44;;;;;;;;;;;18.90;99.90;;;;;;5110531;27;20034;-83
2023/06/07 10:30:13;;;;;;;8.40;5.72;;;18.90;99.90;;;;;;5115157;27;19908;-83
2023/06/07 10:32:39;;;;;;;12.13;5.32;;;18.90;99.90;;;;;;5115388;27;20184;-83
2023/06/07 10:35:10;;;;;;;10.27;5.50;;;18.90;99.90;;;;;;5099912;28;20035;-83
2023/06/07 10:37:36;;;;;;;9.45;5.22;;;18.90;99.90;;;;;;5102990;27;20031;-84
2023/06/07 10:40:09;;;;;;;8.25;5.25;;;18.90;99.90;;;;;;5109180;27;20098;-83
2023/06/07 10:42:35;;;;;;;7.93;5.28;;;19.00;99.90;;;;;;5106433;27;20072;-82
2023/06/07 10:45:01;;;;;;;7.38;4.82;;;19.00;99.90;;;;;;5120165;27;20114;-82
2023/06/07 10:47:29;;;;;;;6.20;4.60;;;19.00;99.90;;;;;;5118160;27;20131;-83
2023/06/07 10:49:56;;;;;;;6.68;5.28;;;19.10;99.90;;;;;;5115510;27;20042;-83
2023/06/07 10:52:28;;;;;;;11.48;5.20;;;19.10;99.90;;;;;;5118408;27;20045;-83
2023/06/07 10:54:54;;;;;;;10.02;5.85;;;19.20;99.90;;;;;;5117080;27;20043;-82
2023/06/07 10:57:37;;;;;;;7.72;4.95;;;19.20;99.90;;;;;;5112978;27;20538;-83
2023/06/07 11:00:33;;;;;;;8.20;5.15;;;19.30;99.90;;;;;;5105483;27;20027;-82
2023/06/07 11:03:22;;;;;;;;;;;19.40;99.90;;;;;;5094486;27;20041;-82
2023/06/07 11:05:54;;;;;;;9.10;5.15;;;19.40;99.90;;;;;;5104285;27;19914;-82
2023/06/07 11:08:29;;;;;;;9.57;5.57;;;19.50;99.90;;;;;;5113910;27;20118;-82
2023/06/07 11:11:00;;;;;;;7.32;4.53;;;19.60;99.90;;;;;;5097079;28;20521;-83
2023/06/07 11:13:26;;;;;;;11.68;6.50;;;19.60;99.90;;;;;;5109667;27;20090;-82
2023/06/07 11:15:52;;;;;;;9.77;6.05;;;19.70;99.90;;;;;;5113589;27;20046;-83
2023/06/07 11:18:18;;;;;;;16.83;5.03;;;19.70;99.90;;;;;;5119674;27;20028;-82
2023/06/07 11:20:45;;;;;;;13.60;6.22;;;19.80;99.90;;;;;;5116621;27;20092;-83
2023/06/07 11:23:20;;;;;;;12.02;5.88;;;20.00;99.90;;;;;;5107292;27;20024;-82
2023/06/07 11:25:46;;;;;;;8.35;4.55;;;20.10;99.90;;;;;;5105557;27;20500;-82
2023/06/07 11:28:12;;;;;;;10.75;5.80;;;20.10;99.90;;;;;;5113779;27;20035;-82
2023/06/07 11:30:41;;;;;;;12.38;6.43;;;20.10;99.90;;;;;;5099518;27;20032;-82
2023/06/07 11:33:16;;;;;;;6.65;4.97;;;20.10;99.90;;;;;;5104391;27;20058;-82
2023/06/07 11:35:42;;;;;;;9.30;5.35;;;20.10;99.90;;;;;;5106922;27;20027;-82
2023/06/07 11:38:10;;;;;;;6.28;5.13;;;20.10;99.90;;;;;;5099123;28;20066;-82
2023/06/07 11:40:36;;;;;;;10.90;5.60;;;20.10;99.90;;;;;;5098114;27;20035;-82
2023/06/07 11:43:02;;;;;;;8.98;5.75;;;20.20;99.90;;;;;;5113067;27;20157;-82
2023/06/07 11:45:31;;;;;;;7.30;4.80;;;20.20;99.90;;;;;;5109082;27;20075;-82
2023/06/07 11:48:00;;;;;;;11.25;5.20;;;20.30;99.90;;;;;;5102502;27;20031;-82
2023/06/07 11:50:25;;;;;;;11.23;5.47;;;20.30;99.90;;;;;;5103533;28;20039;-83
2023/06/07 11:52:53;;;;;;;9.70;5.55;;;20.30;99.90;;;;;;5103636;28;22283;-82
2023/06/07 11:55:18;;;;;;;15.30;6.20;;;20.40;99.90;;;;;;5105802;28;20076;-82
2023/06/07 11:57:47;;;;;;;9.40;4.28;;;20.50;99.90;;;;;;5115256;28;20023;-81
2023/06/07 12:00:18;;;;;;;9.60;4.80;;;20.60;99.90;;;;;;5099458;28;20028;-82
2023/06/07 12:02:44;;;;;;;8.57;4.30;;;20.60;99.90;;;;;;5114056;28;20028;-81
2023/06/07 12:05:09;;;;;;;11.63;5.20;;;20.60;99.90;;;;;;5098943;27;20054;-81
2023/06/07 12:07:36;;;;;;;12.65;5.18;;;20.70;99.90;;;;;;5084205;28;20031;-82
2023/06/07 12:10:08;;;;;;;8.32;4.75;;;20.80;99.90;;;;;;5104780;27;20476;-82
2023/06/07 12:12:39;;;;;;;14.00;5.60;;;20.90;99.90;;;;;;5101400;27;20027;-82
2023/06/07 12:15:05;;;;;;;12.20;4.40;;;21.20;99.90;;;;;;5103700;27;20024;-81
2023/06/07 12:17:35;;;;;;;9.65;4.57;;;21.40;99.90;;;;;;5103641;27;20027;-82
2023/06/07 12:20:18;;;;;;;8.52;4.60;;;21.40;99.90;;;;;;5117897;27;20114;-81
2023/06/07 12:22:44;;;;;;;12.10;4.22;;;21.50;99.90;;;;;;5108949;27;20028;-81
2023/06/07 12:25:18;;;;;;;11.10;4.80;;;21.50;99.90;;;;;;5122836;27;20035;-81
2023/06/07 12:27:45;;;;;;;9.57;4.35;;;21.60;99.90;;;;;;5117885;27;20552;-82
2023/06/07 12:30:11;;;;;;;6.10;4.32;;;21.60;99.90;;;;;;5112310;27;20443;-82
2023/06/07 12:32:37;;;;;;;11.00;4.07;;;21.60;99.90;;;;;;5102001;27;20084;-82
2023/06/07 12:35:07;;;;;;;8.40;3.78;;;21.70;99.90;;;;;;5124633;27;20364;-81
2023/06/07 12:37:36;;;;;;;7.32;4.18;;;21.80;99.90;;;;;;5107257;27;20397;-83